Time;durP1;ratioP1;P1;durP2;ratioP2;P2;SDS_P1;SDS_P2;PMS_P1;PMS_P2;Temp;Humidity;BMP_temperature;BMP_pressure;BME280_temperature;BME280_humidity;BME280_pressure;Samples;Min_cycle;Max_cycle;Signal;HPM_P1;HPM_P2
2022/06/05 00:01:00;;;;;;;13.07;9.30;;;11.00;99.90;;;;;;5126149;27;20239;-81
2022/06/05 00:03:38;;;;;;;11.10;8.93;;;11.00;99.90;;;;;;5106211;27;20219;-79
2022/06/05 00:06:13;;;;;;;11.73;9.20;;;10.90;99.90;;;;;;5112328;28;20226;-79
2022/06/05 00:09:12;;;;;;;11.80;8.83;;;10.90;99.90;;;;;;5108287;28;20222;-80
2022/06/05 00:11:47;;;;;;;11.33;9.10;;;10.80;99.90;;;;;;5127585;27;20217;-80
2022/06/05 00:14:14;;;;;;;12.80;9.63;;;10.80;99.90;;;;;;5128765;27;20239;-80
2022/06/05 00:16:42;;;;;;;15.70;10.17;;;10.70;99.90;;;;;;5112170;27;20221;-80
2022/06/05 00:19:09;;;;;;;12.00;9.37;;;10.70;99.90;;;;;;5126248;27;20307;-80
2022/06/05 00:21:36;;;;;;;13.97;10.20;;;10.60;99.90;;;;;;5128590;27;20517;-80
2022/06/05 00:24:02;;;;;;;12.03;9.73;;;10.60;99.90;;;;;;5110673;27;21021;-80
2022/06/05 00:26:37;;;;;;;12.63;9.07;;;10.60;99.90;;;;;;5116178;27;20558;-81
2022/06/05 00:29:16;;;;;;;10.17;8.63;;;10.50;99.90;;;;;;5106729;27;20224;-80
2022/06/05 00:31:53;;;;;;;13.50;9.33;;;10.50;99.90;;;;;;5132758;27;20223;-80
2022/06/05 00:34:19;;;;;;;11.23;9.70;;;10.40;99.90;;;;;;5110632;27;20309;-80
2022/06/05 00:37:02;;;;;;;11.60;9.47;;;10.40;99.90;;;;;;5133646;27;20303;-79
2022/06/05 00:39:36;;;;;;;11.47;8.77;;;10.40;99.90;;;;;;5116578;27;20223;-79
2022/06/05 00:42:06;;;;;;;13.10;10.27;;;10.30;99.90;;;;;;5119170;27;20274;-80
2022/06/05 00:44:36;;;;;;;12.33;10.03;;;10.30;99.90;;;;;;5099531;27;20303;-79
2022/06/05 00:47:06;;;;;;;12.30;10.17;;;10.20;99.90;;;;;;5132495;27;20239;-80
2022/06/05 00:49:37;;;;;;;11.27;9.20;;;10.30;99.90;;;;;;5132236;27;20311;-80
2022/06/05 00:52:06;;;;;;;13.73;9.73;;;10.20;99.90;;;;;;5128004;27;20546;-79
2022/06/05 00:54:33;;;;;;;11.07;9.30;;;10.20;99.90;;;;;;5132735;27;20297;-79
2022/06/05 00:57:00;;;;;;;13.70;9.80;;;10.10;99.90;;;;;;5134068;27;20884;-80
2022/06/05 00:59:28;;;;;;;13.60;9.97;;;10.10;99.90;;;;;;5132426;27;20217;-80
2022/06/05 01:01:55;;;;;;;12.37;10.23;;;10.00;99.90;;;;;;5134337;27;20213;-79
2022/06/05 01:04:24;;;;;;;13.77;9.90;;;10.00;99.90;;;;;;5109400;27;20254;-79
2022/06/05 01:06:52;;;;;;;15.17;10.60;;;10.00;99.90;;;;;;5134057;27;20226;-80
2022/06/05 01:09:19;;;;;;;12.10;10.07;;;10.00;99.90;;;;;;5114988;27;20292;-80
2022/06/05 01:11:57;;;;;;;15.40;11.30;;;9.90;99.90;;;;;;5126364;27;20305;-80
2022/06/05 01:14:34;;;;;;;12.83;10.10;;;9.90;99.90;;;;;;5133756;27;20220;-79
2022/06/05 01:17:10;;;;;;;13.50;9.83;;;9.90;99.90;;;;;;5114385;27;20223;-79
2022/06/05 01:19:43;;;;;;;12.40;10.67;;;9.90;99.90;;;;;;5123162;27;20221;-80
2022/06/05 01:22:58;;;;;;;15.97;11.20;;;9.90;99.90;;;;;;5137202;27;20226;-80
2022/06/05 01:25:41;;;;;;;13.43;10.20;;;9.90;99.90;;;;;;5048121;28;20602;-80
2022/06/05 01:28:11;;;;;;;13.50;10.40;;;9.90;99.90;;;;;;5132386;27;20225;-79
2022/06/05 01:30:46;;;;;;;14.47;10.90;;;9.90;99.90;;;;;;5111869;27;20233;-80
2022/06/05 01:33:18;;;;;;;15.20;11.57;;;9.80;99.90;;;;;;5114888;27;20232;-80
2022/06/05 01:35:50;;;;;;;14.57;10.73;;;9.80;99.90;;;;;;5122702;27;20245;-80
2022/06/05 01:38:21;;;;;;;13.97;10.57;;;9.80;99.90;;;;;;5129844;27;20236;-80
2022/06/05 01:40:52;;;;;;;14.77;11.70;;;9.80;99.90;;;;;;5133268;27;20225;-80
2022/06/05 01:43:22;;;;;;;14.23;11.67;;;9.80;99.90;;;;;;5135481;27;20225;-80
2022/06/05 01:45:54;;;;;;;13.60;11.00;;;9.80;99.90;;;;;;5131825;27;20243;-81
2022/06/05 01:48:24;;;;;;;13.43;10.10;;;9.80;99.90;;;;;;5112185;27;20214;-80
2022/06/05 01:50:57;;;;;;;14.33;10.93;;;9.70;99.90;;;;;;5112995;27;20221;-81
2022/06/05 01:53:27;;;;;;;17.77;11.17;;;9.70;99.90;;;;;;5126801;27;20279;-80
2022/06/05 01:56:00;;;;;;;16.33;12.43;;;9.70;99.90;;;;;;5130328;27;20229;-79
2022/06/05 01:58:32;;;;;;;14.40;9.90;;;9.70;99.90;;;;;;5124008;27;20227;-80
2022/06/05 02:01:05;;;;;;;14.07;10.83;;;9.70;99.90;;;;;;5113572;27;20729;-80
2022/06/05 02:03:38;;;;;;;13.03;10.33;;;9.70;99.90;;;;;;5112955;27;20217;-79
2022/06/05 02:06:11;;;;;;;15.27;11.00;;;9.70;99.90;;;;;;5127752;27;20768;-80
2022/06/05 02:08:42;;;;;;;16.53;11.53;;;9.70;99.90;;;;;;5128857;27;20231;-79
2022/06/05 02:11:15;;;;;;;12.50;10.43;;;9.60;99.90;;;;;;5124554;27;20221;-80
2022/06/05 02:13:42;;;;;;;14.03;10.03;;;9.60;99.90;;;;;;5110360;27;20213;-79
2022/06/05 02:16:09;;;;;;;14.80;11.13;;;9.60;99.90;;;;;;5127690;27;20252;-80
2022/06/05 02:18:36;;;;;;;17.97;11.90;;;9.50;99.90;;;;;;5113142;27;20229;-80
2022/06/05 02:21:04;;;;;;;14.77;11.73;;;9.60;99.90;;;;;;5147763;27;20304;-81
2022/06/05 02:23:34;;;;;;;13.97;11.67;;;9.50;99.90;;;;;;5111136;27;20222;-80
2022/06/05 02:26:01;;;;;;;14.83;11.80;;;9.50;99.90;;;;;;5132960;27;20229;-80
2022/06/05 02:28:29;;;;;;;15.67;11.13;;;9.50;99.90;;;;;;5113663;27;20217;-81
2022/06/05 02:31:04;;;;;;;15.27;11.73;;;9.50;99.90;;;;;;5129064;27;20226;-80
2022/06/05 02:33:44;;;;;;;17.37;11.60;;;9.50;99.90;;;;;;5119751;27;20221;-81
2022/06/05 02:36:22;;;;;;;14.50;10.97;;;9.50;99.90;;;;;;5118283;27;20728;-81
2022/06/05 02:39:04;;;;;;;13.20;10.27;;;9.50;99.90;;;;;;5115605;27;20219;-81
2022/06/05 02:41:42;;;;;;;17.03;11.90;;;9.50;99.90;;;;;;5115241;27;20225;-81
2022/06/05 02:44:31;;;;;;;15.07;11.20;;;9.50;99.90;;;;;;5127019;27;20315;-80
2022/06/05 02:47:14;;;;;;;14.43;10.77;;;9.50;99.90;;;;;;5139298;27;20217;-81
2022/06/05 02:49:51;;;;;;;14.47;10.83;;;9.50;99.90;;;;;;5133550;27;20605;-81
2022/06/05 02:52:19;;;;;;;14.07;10.53;;;9.50;99.90;;;;;;5113492;27;20311;-81
2022/06/05 02:54:51;;;;;;;13.10;10.00;;;9.50;99.90;;;;;;5130536;27;20221;-80
2022/06/05 02:57:20;;;;;;;15.17;10.20;;;9.40;99.90;;;;;;5113753;27;20221;-80
2022/06/05 02:59:50;;;;;;;13.17;10.10;;;9.40;99.90;;;;;;5133012;27;20230;-81
2022/06/05 03:05:02;;;;;;;14.20;10.63;;;9.40;99.90;;;;;;5132338;27;20273;-81
2022/06/05 03:07:28;;;;;;;13.20;10.53;;;9.40;99.90;;;;;;5131855;27;20251;-80
2022/06/05 03:09:55;;;;;;;13.53;10.47;;;9.40;99.90;;;;;;5112753;27;20240;-81
2022/06/05 03:12:22;;;;;;;12.87;10.13;;;9.40;99.90;;;;;;5128459;27;20225;-81
2022/06/05 03:14:50;;;;;;;13.90;10.13;;;9.40;99.90;;;;;;5112704;27;20296;-81
2022/06/05 03:17:17;;;;;;;14.30;10.90;;;9.40;99.90;;;;;;5131486;27;20226;-80
2022/06/05 03:19:47;;;;;;;14.77;11.00;;;9.50;99.90;;;;;;5111508;27;20223;-81
2022/06/05 03:22:13;;;;;;;13.63;11.07;;;9.40;99.90;;;;;;5111876;27;20228;-82
2022/06/05 03:24:40;;;;;;;14.03;10.27;;;9.50;99.90;;;;;;5125934;27;20213;-82
2022/06/05 03:27:07;;;;;;;12.43;10.10;;;9.50;99.90;;;;;;5106253;28;20644;-82
2022/06/05 03:29:34;;;;;;;12.43;10.63;;;9.50;99.90;;;;;;5112506;27;20320;-82
2022/06/05 03:32:02;;;;;;;15.07;10.47;;;9.50;99.90;;;;;;5107646;28;20702;-81
2022/06/05 03:34:29;;;;;;;13.93;10.60;;;9.50;99.90;;;;;;5129874;27;20728;-81
2022/06/05 03:36:56;;;;;;;12.83;10.20;;;9.50;99.90;;;;;;5114223;27;20281;-81
2022/06/05 03:39:22;;;;;;;12.53;9.80;;;9.60;99.90;;;;;;5103180;27;20858;-81
2022/06/05 03:42:06;;;;;;;13.53;11.53;;;9.60;99.90;;;;;;5130195;27;20217;-81
2022/06/05 03:44:41;;;;;;;14.17;10.50;;;9.60;99.90;;;;;;5125469;27;20675;-81
2022/06/05 03:47:11;;;;;;;14.67;11.60;;;9.60;99.90;;;;;;5129956;27;20228;-81
2022/06/05 03:49:38;;;;;;;12.17;10.30;;;9.60;99.90;;;;;;5127790;27;20229;-82
2022/06/05 03:52:06;;;;;;;13.30;10.23;;;9.60;99.90;;;;;;5128045;27;20233;-81
2022/06/05 03:54:33;;;;;;;11.93;10.40;;;9.60;99.90;;;;;;5111815;28;20580;-81
2022/06/05 03:57:00;;;;;;;15.27;11.27;;;9.70;99.90;;;;;;5121099;28;20302;-81
2022/06/05 03:59:27;;;;;;;15.23;11.83;;;9.70;99.90;;;;;;5107901;28;20218;-81
2022/06/05 04:01:54;;;;;;;17.40;10.73;;;9.80;99.90;;;;;;5098449;28;20222;-81
2022/06/05 04:04:23;;;;;;;12.30;9.97;;;9.80;99.90;;;;;;5101960;27;20329;-81
2022/06/05 04:06:49;;;;;;;14.07;11.10;;;9.90;99.90;;;;;;5108056;27;20228;-79
2022/06/05 04:09:16;;;;;;;16.43;11.23;;;9.90;99.90;;;;;;5125778;27;20217;-79
2022/06/05 04:11:43;;;;;;;17.43;11.40;;;9.90;99.90;;;;;;5120317;28;20234;-80
2022/06/05 04:14:10;;;;;;;14.77;10.63;;;10.00;99.90;;;;;;5116962;28;20556;-79
2022/06/05 04:16:40;;;;;;;13.23;10.67;;;10.00;99.90;;;;;;5124445;27;20320;-80
2022/06/05 04:19:07;;;;;;;16.33;11.27;;;10.00;99.90;;;;;;5105547;27;20225;-79
2022/06/05 04:21:38;;;;;;;14.63;10.83;;;10.00;99.90;;;;;;5127085;28;20213;-79
2022/06/05 04:24:05;;;;;;;14.07;10.53;;;10.10;99.90;;;;;;5125097;27;20325;-79
2022/06/05 04:26:34;;;;;;;13.90;11.43;;;10.10;99.90;;;;;;5106282;28;20228;-79
2022/06/05 04:29:02;;;;;;;12.63;10.80;;;10.20;99.90;;;;;;5108748;27;20233;-78
2022/06/05 04:31:30;;;;;;;16.83;12.03;;;10.20;99.90;;;;;;5121460;27;20229;-79
2022/06/05 04:33:59;;;;;;;12.97;10.30;;;10.20;99.90;;;;;;5103304;28;20223;-78
2022/06/05 04:36:26;;;;;;;14.80;10.23;;;10.30;99.90;;;;;;5115042;27;20238;-78
2022/06/05 04:38:55;;;;;;;15.77;11.13;;;10.30;99.90;;;;;;5126324;27;20246;-79
2022/06/05 04:41:24;;;;;;;13.40;11.00;;;10.40;99.90;;;;;;5124193;27;20228;-79
2022/06/05 04:43:52;;;;;;;14.57;10.60;;;10.40;99.90;;;;;;5107018;28;20717;-80
2022/06/05 04:46:20;;;;;;;13.57;10.83;;;10.40;99.90;;;;;;5110616;27;20226;-78
2022/06/05 04:48:46;;;;;;;14.53;11.30;;;10.50;99.90;;;;;;5120087;28;20211;-78
2022/06/05 04:51:13;;;;;;;16.10;11.80;;;10.50;99.90;;;;;;5116978;27;20239;-78
2022/06/05 04:53:41;;;;;;;16.20;11.73;;;10.50;99.90;;;;;;5104476;27;20707;-78
2022/06/05 04:56:11;;;;;;;14.23;11.70;;;10.60;99.90;;;;;;5109401;27;20236;-79
2022/06/05 04:58:38;;;;;;;16.47;11.93;;;10.60;99.90;;;;;;5122115;27;20227;-78
2022/06/05 05:01:10;;;;;;;14.37;12.07;;;10.70;99.90;;;;;;5125015;27;20234;-78
2022/06/05 05:03:37;;;;;;;15.13;12.03;;;10.80;99.90;;;;;;5112083;27;20231;-79
2022/06/05 05:06:04;;;;;;;14.67;11.40;;;10.90;99.90;;;;;;5129743;27;20765;-79
2022/06/05 05:08:30;;;;;;;12.77;11.40;;;10.90;99.90;;;;;;5130848;27;20243;-79
2022/06/05 05:10:57;;;;;;;15.53;11.90;;;11.00;99.90;;;;;;5101366;27;20608;-81
2022/06/05 05:13:26;;;;;;;14.47;11.60;;;11.00;99.90;;;;;;5097746;27;20817;-81
2022/06/05 05:15:55;;;;;;;14.60;11.07;;;11.10;99.90;;;;;;5107059;27;20223;-81
2022/06/05 05:18:22;;;;;;;16.87;11.80;;;11.20;99.90;;;;;;5103984;27;20220;-81
2022/06/05 05:20:49;;;;;;;14.50;12.07;;;11.20;99.90;;;;;;5124786;27;20213;-81
2022/06/05 05:23:16;;;;;;;15.57;12.10;;;11.30;99.90;;;;;;5121923;27;20218;-81
2022/06/05 05:25:43;;;;;;;13.53;11.87;;;11.40;99.90;;;;;;5126763;27;20225;-81
2022/06/05 05:28:09;;;;;;;14.93;11.53;;;11.50;99.90;;;;;;5121933;27;20288;-81
2022/06/05 05:30:43;;;;;;;14.53;11.17;;;11.50;99.90;;;;;;5107556;27;20225;-81
2022/06/05 05:33:10;;;;;;;14.33;11.30;;;11.60;99.90;;;;;;5105285;27;20705;-81
2022/06/05 05:35:37;;;;;;;15.63;12.33;;;11.60;99.90;;;;;;5119034;27;20221;-81
2022/06/05 05:38:06;;;;;;;14.10;11.70;;;11.70;99.90;;;;;;5106313;27;20764;-81
2022/06/05 05:43:17;;;;;;;14.77;11.43;;;11.80;99.90;;;;;;5106382;27;20236;-81
2022/06/05 05:45:46;;;;;;;12.53;10.40;;;11.90;99.90;;;;;;5126769;27;20273;-81
2022/06/05 05:48:13;;;;;;;14.90;11.70;;;11.90;99.90;;;;;;5100630;27;20215;-81
2022/06/05 05:50:43;;;;;;;14.60;10.97;;;12.00;99.90;;;;;;5108208;27;20235;-81
2022/06/05 05:53:10;;;;;;;13.03;10.27;;;12.10;99.90;;;;;;5124577;27;20698;-81
2022/06/05 05:55:36;;;;;;;12.47;9.87;;;12.20;99.90;;;;;;5125433;27;21176;-81
2022/06/05 05:58:03;;;;;;;12.60;10.50;;;12.20;99.90;;;;;;5124571;27;20234;-81
2022/06/05 06:00:30;;;;;;;12.30;10.33;;;12.30;99.90;;;;;;5127561;27;20222;-81
2022/06/05 06:02:58;;;;;;;10.60;8.83;;;12.40;99.90;;;;;;5119700;27;20309;-81
2022/06/05 06:05:25;;;;;;;11.63;9.57;;;12.40;99.90;;;;;;5120282;27;20239;-80
2022/06/05 06:07:52;;;;;;;10.30;8.73;;;12.50;99.90;;;;;;5107013;27;20259;-82
2022/06/05 06:10:19;;;;;;;10.50;8.33;;;12.60;99.90;;;;;;5106933;27;20223;-82
2022/06/05 06:12:46;;;;;;;10.90;9.17;;;12.60;99.90;;;;;;5110445;27;20242;-82
2022/06/05 06:15:13;;;;;;;10.43;8.37;;;12.70;99.90;;;;;;5101930;27;20301;-82
2022/06/05 06:17:40;;;;;;;9.43;8.10;;;12.80;99.90;;;;;;5130165;27;20857;-82
2022/06/05 06:20:10;;;;;;;9.93;8.53;;;12.90;99.90;;;;;;5126463;27;20292;-82
2022/06/05 06:22:37;;;;;;;10.87;8.43;;;13.00;99.90;;;;;;5106392;27;20306;-82
2022/06/05 06:25:06;;;;;;;9.67;7.80;;;13.10;99.90;;;;;;5128962;27;20245;-82
2022/06/05 06:27:32;;;;;;;10.07;7.47;;;13.20;99.90;;;;;;5096520;27;20308;-81
2022/06/05 06:29:59;;;;;;;8.77;6.77;;;13.40;99.90;;;;;;5107036;27;20225;-81
2022/06/05 06:32:26;;;;;;;8.47;7.20;;;13.60;99.90;;;;;;5107183;27;20608;-81
2022/06/05 06:34:53;;;;;;;9.57;7.03;;;13.80;99.90;;;;;;5127109;27;20225;-81
2022/06/05 06:37:23;;;;;;;7.57;6.77;;;14.10;99.90;;;;;;5124913;27;20317;-82
2022/06/05 06:39:50;;;;;;;7.53;6.30;;;14.40;99.90;;;;;;5109362;27;20213;-82
2022/06/05 06:42:18;;;;;;;6.80;6.00;;;14.70;99.90;;;;;;5109497;27;20217;-83
2022/06/05 06:44:46;;;;;;;7.13;6.10;;;15.00;99.90;;;;;;5112109;27;20280;-81
2022/06/05 06:47:13;;;;;;;6.83;5.93;;;15.20;99.90;;;;;;5130855;27;21040;-84
2022/06/05 06:49:40;;;;;;;6.40;5.77;;;15.40;99.90;;;;;;5129236;27;20281;-82
2022/06/05 06:52:07;;;;;;;5.93;5.33;;;15.50;99.90;;;;;;5130217;27;20324;-80
2022/06/05 06:54:35;;;;;;;8.53;5.37;;;15.60;99.90;;;;;;5127928;27;20234;-82
2022/06/05 06:57:02;;;;;;;8.27;5.75;;;15.80;99.90;;;;;;5126318;27;20228;-80
2022/06/05 06:59:29;;;;;;;6.75;5.53;;;15.90;99.90;;;;;;5108672;27;20670;-82
2022/06/05 07:01:56;;;;;;;6.88;5.03;;;16.30;99.90;;;;;;5120933;27;20213;-81
2022/06/05 07:04:22;;;;;;;5.38;4.28;;;16.80;99.90;;;;;;5106546;27;20224;-81
2022/06/05 07:06:49;;;;;;;5.75;4.78;;;17.50;99.90;;;;;;5109813;27;20233;-81
2022/06/05 07:09:16;;;;;;;4.25;3.85;;;18.20;99.90;;;;;;5126654;27;20308;-81
2022/06/05 07:11:45;;;;;;;5.78;4.32;;;19.00;99.90;;;;;;5127514;27;20214;-83
2022/06/05 07:14:12;;;;;;;4.25;3.63;;;19.70;98.40;;;;;;5116814;27;20254;-84
2022/06/05 07:16:40;;;;;;;4.63;3.58;;;20.50;97.50;;;;;;5119741;27;20219;-84
2022/06/05 07:19:06;;;;;;;3.92;3.33;;;21.20;95.60;;;;;;5110897;27;20236;-83
2022/06/05 07:21:33;;;;;;;5.13;3.47;;;21.80;95.40;;;;;;5109804;27;20249;-83
2022/06/05 07:24:02;;;;;;;3.75;3.42;;;22.50;94.60;;;;;;5110834;27;20698;-86
2022/06/05 07:26:31;;;;;;;4.15;3.55;;;23.10;93.00;;;;;;5125833;27;20308;-84
2022/06/05 07:29:00;;;;;;;3.67;3.30;;;23.80;92.10;;;;;;5102193;27;20255;-83
2022/06/05 07:31:29;;;;;;;4.88;3.33;;;24.50;90.30;;;;;;5131470;27;20243;-84
2022/06/05 07:33:57;;;;;;;4.60;2.80;;;25.00;87.70;;;;;;5112562;27;20249;-83
2022/06/05 07:36:25;;;;;;;3.40;3.00;;;25.50;85.80;;;;;;5100491;27;20213;-84
2022/06/05 07:38:51;;;;;;;4.25;3.47;;;25.80;84.50;;;;;;5118008;27;20653;-83
2022/06/05 07:41:21;;;;;;;3.72;2.90;;;26.20;83.70;;;;;;5113223;27;20221;-83
2022/06/05 07:43:48;;;;;;;4.70;3.20;;;26.50;80.20;;;;;;5126337;27;20248;-81
2022/06/05 07:46:17;;;;;;;3.03;2.80;;;27.00;77.90;;;;;;5125078;27;20221;-81
2022/06/05 07:48:43;;;;;;;4.25;3.00;;;27.20;74.60;;;;;;5128372;27;20283;-80
2022/06/05 07:56:45;;;;;;;10.38;3.83;;;27.90;73.40;;;;;;5124764;27;20259;-81
2022/06/05 07:59:11;;;;;;;5.82;3.67;;;28.20;73.20;;;;;;5109091;28;20225;-81
2022/06/05 08:01:40;;;;;;;4.10;2.97;;;28.40;72.20;;;;;;5125084;27;20266;-81
2022/06/05 08:04:06;;;;;;;3.90;3.47;;;28.70;70.90;;;;;;5117601;28;20233;-81
2022/06/05 08:06:34;;;;;;;3.42;3.13;;;29.10;70.40;;;;;;5123700;27;20229;-81
2022/06/05 08:09:01;;;;;;;3.47;3.00;;;29.50;69.10;;;;;;5120811;27;20506;-81
2022/06/05 08:11:28;;;;;;;4.30;3.53;;;29.80;67.50;;;;;;5127533;27;20224;-81
2022/06/05 08:13:55;;;;;;;6.28;3.42;;;30.00;65.80;;;;;;5122822;28;20214;-81
2022/06/05 08:16:22;;;;;;;3.45;2.92;;;30.10;64.40;;;;;;5127868;27;21148;-81
2022/06/05 08:18:51;;;;;;;3.30;3.00;;;30.10;63.80;;;;;;5128732;27;20222;-82
2022/06/05 08:21:18;;;;;;;3.72;3.35;;;30.20;62.40;;;;;;5108314;27;21014;-81
2022/06/05 08:23:45;;;;;;;3.70;3.30;;;30.30;62.90;;;;;;5116208;28;20601;-80
2022/06/05 08:26:12;;;;;;;3.50;3.20;;;30.50;62.50;;;;;;5116263;27;20217;-81
2022/06/05 08:28:39;;;;;;;4.05;3.20;;;30.70;61.10;;;;;;5126132;27;20251;-81
2022/06/05 08:31:06;;;;;;;3.40;3.10;;;31.00;59.90;;;;;;5125156;27;20225;-81
2022/06/05 08:33:35;;;;;;;3.50;3.17;;;31.30;59.40;;;;;;5110151;27;20269;-81
2022/06/05 08:36:03;;;;;;;3.15;2.85;;;31.60;59.00;;;;;;5105722;27;20301;-80
2022/06/05 08:41:31;;;;;;;3.63;3.17;;;32.20;57.00;;;;;;5117513;27;20213;-81
2022/06/05 08:44:04;;;;;;;2.90;2.70;;;32.40;55.90;;;;;;5130103;27;20233;-80
2022/06/05 08:46:37;;;;;;;3.05;2.80;;;32.60;55.40;;;;;;5133534;27;20252;-81
2022/06/05 08:49:11;;;;;;;3.22;2.95;;;32.90;54.40;;;;;;5129640;27;20221;-81
2022/06/05 08:51:55;;;;;;;3.65;3.00;;;33.00;54.50;;;;;;5126691;27;20217;-80
2022/06/05 08:54:24;;;;;;;2.65;2.45;;;33.20;52.90;;;;;;5128101;27;20225;-80
2022/06/05 08:56:56;;;;;;;3.05;2.85;;;33.40;52.90;;;;;;5133200;27;20293;-81
2022/06/05 08:59:29;;;;;;;3.20;2.90;;;33.60;52.10;;;;;;5110728;27;20233;-80
2022/06/05 09:02:03;;;;;;;3.95;2.63;;;33.60;51.50;;;;;;5106614;27;20558;-81
2022/06/05 09:04:46;;;;;;;3.33;2.83;;;33.80;51.00;;;;;;5133396;27;20615;-81
2022/06/05 09:07:17;;;;;;;3.85;2.90;;;33.80;50.70;;;;;;5129371;27;20270;-81
2022/06/05 09:09:48;;;;;;;2.72;2.53;;;33.90;50.60;;;;;;5133873;27;20919;-80
2022/06/05 09:12:23;;;;;;;3.30;3.10;;;34.00;50.00;;;;;;5131093;27;20761;-81
2022/06/05 09:14:57;;;;;;;3.17;2.88;;;34.00;49.60;;;;;;5135865;27;20213;-80
2022/06/05 09:17:25;;;;;;;2.85;2.65;;;34.10;49.00;;;;;;5130187;27;20256;-81
2022/06/05 09:19:54;;;;;;;3.60;3.05;;;34.10;49.30;;;;;;5131549;27;20233;-81
2022/06/05 09:22:32;;;;;;;2.97;2.67;;;34.10;48.50;;;;;;5134433;27;20343;-80
2022/06/05 09:25:12;;;;;;;3.22;2.92;;;34.20;48.40;;;;;;5120233;27;20223;-81
2022/06/05 09:27:49;;;;;;;3.72;2.65;;;34.20;47.40;;;;;;5110147;27;20225;-80
2022/06/05 09:30:23;;;;;;;3.55;2.45;;;34.30;47.70;;;;;;5137175;27;20217;-80
2022/06/05 09:33:05;;;;;;;3.92;3.63;;;34.40;47.00;;;;;;5108824;27;20299;-81
2022/06/05 09:35:37;;;;;;;3.10;2.80;;;34.40;46.90;;;;;;5122473;27;21000;-81
2022/06/05 09:38:14;;;;;;;4.13;3.40;;;34.40;46.60;;;;;;5107122;27;20859;-80
2022/06/05 09:40:53;;;;;;;3.67;3.33;;;34.40;46.10;;;;;;5140653;27;20224;-80
2022/06/05 09:43:53;;;;;;;3.22;2.90;;;34.30;46.20;;;;;;5128550;27;20261;-80
2022/06/05 09:46:40;;;;;;;3.00;2.60;;;34.20;47.30;;;;;;5130224;27;20226;-80
2022/06/05 09:49:13;;;;;;;3.13;2.90;;;34.30;46.80;;;;;;5123156;27;20670;-81
2022/06/05 09:51:42;;;;;;;5.60;2.90;;;34.40;46.20;;;;;;5117079;27;20234;-81
2022/06/05 09:54:18;;;;;;;3.78;2.78;;;34.60;46.10;;;;;;5126576;27;20233;-83
2022/06/05 09:59:43;;;;;;;2.72;2.53;;;34.80;44.60;;;;;;5107911;27;21138;-80
2022/06/05 10:02:15;;;;;;;4.28;2.60;;;34.80;43.80;;;;;;5110043;27;20236;-81
2022/06/05 10:04:42;;;;;;;3.45;2.92;;;34.80;44.70;;;;;;5124772;27;20240;-80
2022/06/05 10:07:18;;;;;;;3.83;2.90;;;34.80;44.70;;;;;;5127380;27;20312;-81
2022/06/05 10:09:46;;;;;;;3.17;2.88;;;34.70;43.60;;;;;;5126244;27;20235;-81
2022/06/05 10:12:22;;;;;;;2.63;2.42;;;34.60;43.70;;;;;;5126571;27;20217;-81
2022/06/05 10:14:54;;;;;;;3.55;2.40;;;34.50;43.80;;;;;;5114206;27;20249;-81
2022/06/05 10:17:47;;;;;;;3.55;2.42;;;34.40;44.30;;;;;;5104514;27;20236;-81
2022/06/05 10:20:37;;;;;;;2.42;2.22;;;34.60;44.30;;;;;;5121569;27;20222;-81
2022/06/05 10:23:19;;;;;;;2.80;2.22;;;34.80;44.10;;;;;;5119508;27;20225;-81
2022/06/05 10:25:55;;;;;;;2.70;2.50;;;35.10;43.50;;;;;;5101740;27;20225;-80
2022/06/05 10:28:25;;;;;;;2.55;2.28;;;35.20;43.30;;;;;;5114631;27;20221;-81
2022/06/05 10:30:56;;;;;;;2.80;2.38;;;35.40;42.50;;;;;;5118573;27;20297;-81
2022/06/05 10:33:32;;;;;;;3.33;2.67;;;35.50;42.20;;;;;;5111691;27;20334;-80
2022/06/05 10:36:04;;;;;;;2.60;2.40;;;35.60;41.70;;;;;;5120057;27;20224;-81
2022/06/05 10:38:37;;;;;;;2.95;2.40;;;35.60;41.40;;;;;;5116396;27;20717;-80
2022/06/05 10:41:19;;;;;;;3.05;2.20;;;35.50;41.10;;;;;;5100720;27;20230;-80
2022/06/05 10:44:05;;;;;;;2.30;2.10;;;35.40;41.40;;;;;;5094349;27;20217;-80
2022/06/05 10:46:33;;;;;;;2.53;2.35;;;35.50;42.00;;;;;;5116261;27;20320;-81
2022/06/05 10:49:09;;;;;;;2.45;1.95;;;35.70;41.70;;;;;;5120675;27;20296;-81
2022/06/05 10:51:42;;;;;;;2.55;2.20;;;35.80;40.80;;;;;;5118601;27;20260;-81
2022/06/05 10:54:33;;;;;;;2.47;1.90;;;36.00;40.80;;;;;;5104247;27;20813;-81
2022/06/05 10:57:11;;;;;;;2.40;2.15;;;36.30;41.20;;;;;;5116318;27;20234;-81
2022/06/05 10:59:45;;;;;;;3.17;2.22;;;36.60;40.40;;;;;;5114247;27;20229;-81
2022/06/05 11:02:26;;;;;;;2.72;1.77;;;36.80;39.70;;;;;;5105690;27;20312;-80
2022/06/05 11:05:02;;;;;;;2.58;2.38;;;37.10;39.60;;;;;;5098343;27;20950;-80
2022/06/05 11:07:47;;;;;;;2.60;2.00;;;37.20;39.20;;;;;;5122583;27;20720;-81
2022/06/05 11:16:09;;;;;;;3.30;1.90;;;37.20;37.30;;;;;;5100136;27;20298;-81
2022/06/05 11:18:42;;;;;;;3.53;1.77;;;36.90;37.10;;;;;;5119345;27;20225;-80
2022/06/05 11:21:10;;;;;;;2.30;1.80;;;36.60;37.30;;;;;;5122633;27;20217;-80
2022/06/05 11:23:41;;;;;;;2.25;2.05;;;36.30;37.40;;;;;;5109171;27;20217;-81
2022/06/05 11:26:21;;;;;;;1.95;1.85;;;36.10;37.60;;;;;;5106391;27;20232;-81
2022/06/05 11:29:09;;;;;;;1.60;1.50;;;36.00;37.20;;;;;;5106593;27;20219;-80
2022/06/05 11:31:49;;;;;;;1.92;1.73;;;35.90;37.70;;;;;;5103559;27;20229;-80
2022/06/05 11:34:25;;;;;;;1.73;1.63;;;35.90;38.00;;;;;;5116642;27;20217;-79
2022/06/05 11:36:54;;;;;;;2.08;1.88;;;36.00;37.30;;;;;;5122781;27;20818;-79
2022/06/05 11:39:31;;;;;;;1.70;1.60;;;36.00;36.50;;;;;;5124740;27;20237;-82
2022/06/05 11:42:11;;;;;;;1.70;1.40;;;36.10;36.00;;;;;;5128513;27;20217;-82
2022/06/05 11:44:43;;;;;;;2.05;1.58;;;36.10;36.20;;;;;;5102675;27;20777;-82
2022/06/05 11:47:25;;;;;;;1.60;1.50;;;36.10;36.40;;;;;;5112266;27;20233;-82
2022/06/05 11:50:01;;;;;;;1.75;1.58;;;36.10;36.10;;;;;;5107505;27;20221;-81
2022/06/05 11:52:32;;;;;;;2.97;1.63;;;36.20;36.10;;;;;;5108886;28;20233;-82
2022/06/05 11:55:36;;;;;;;1.73;1.63;;;36.20;36.30;;;;;;5124864;27;20892;-82
2022/06/05 11:58:38;;;;;;;2.25;1.45;;;36.20;35.50;;;;;;5116124;27;20422;-82
2022/06/05 12:01:38;;;;;;;1.77;1.50;;;36.20;34.90;;;;;;5128726;27;20227;-83
2022/06/05 12:04:44;;;;;;;1.65;1.55;;;36.00;35.00;;;;;;5103285;27;20620;-83
2022/06/05 12:07:37;;;;;;;1.70;1.60;;;35.80;35.20;;;;;;5128098;28;20259;-83
2022/06/05 12:10:32;;;;;;;3.53;1.55;;;35.60;35.00;;;;;;5125375;28;20795;-83
2022/06/05 12:13:35;;;;;;;2.33;1.63;;;35.20;34.80;;;;;;5128346;27;20232;-83
2022/06/05 12:16:36;;;;;;;1.58;1.48;;;34.80;35.00;;;;;;5130016;27;20228;-83
2022/06/05 12:19:38;;;;;;;2.28;1.58;;;34.40;35.20;;;;;;5133240;27;20224;-83
2022/06/05 12:22:39;;;;;;;1.60;1.50;;;33.90;36.20;;;;;;5131871;27;21176;-82
2022/06/05 12:25:38;;;;;;;1.60;1.50;;;33.50;36.10;;;;;;5132357;27;20770;-80
2022/06/05 12:28:39;;;;;;;3.58;1.40;;;33.30;36.80;;;;;;5120888;27;20359;-82
2022/06/05 12:31:38;;;;;;;1.45;1.35;;;33.10;36.10;;;;;;5136823;27;20390;-82
2022/06/05 12:34:40;;;;;;;1.80;1.48;;;33.00;36.10;;;;;;5129545;27;20235;-82
2022/06/05 12:37:38;;;;;;;1.70;1.35;;;32.90;37.00;;;;;;5132360;27;20231;-82
2022/06/05 12:40:36;;;;;;;1.42;1.33;;;33.00;36.20;;;;;;5135002;27;20220;-82
2022/06/05 12:43:31;;;;;;;1.40;1.30;;;32.90;36.70;;;;;;5131539;27;20228;-82
2022/06/05 12:46:31;;;;;;;4.22;1.30;;;32.90;37.20;;;;;;5129012;27;20225;-83
2022/06/05 12:49:41;;;;;;;2.17;1.30;;;33.00;37.00;;;;;;5129109;27;20248;-82
2022/06/05 12:52:39;;;;;;;1.90;1.30;;;33.00;36.20;;;;;;5099225;27;20228;-84
2022/06/05 12:55:35;;;;;;;1.40;1.30;;;33.20;36.00;;;;;;5129238;27;20236;-84
2022/06/05 12:58:35;;;;;;;2.83;1.48;;;33.30;36.10;;;;;;5128548;27;20354;-82
2022/06/05 13:01:33;;;;;;;1.73;1.63;;;33.30;35.60;;;;;;5131251;27;21101;-82
2022/06/05 13:04:40;;;;;;;1.33;1.23;;;33.30;35.10;;;;;;5126409;27;20233;-83
2022/06/05 13:07:45;;;;;;;1.23;1.15;;;33.20;35.00;;;;;;5119120;27;20269;-82
2022/06/05 13:10:41;;;;;;;1.98;1.20;;;33.20;35.30;;;;;;5127807;27;20219;-82
2022/06/05 13:13:43;;;;;;;1.58;1.20;;;33.20;36.00;;;;;;5131190;27;20232;-82
2022/06/05 13:16:42;;;;;;;4.45;1.20;;;33.20;35.60;;;;;;5128550;27;20889;-82
2022/06/05 13:19:42;;;;;;;1.58;1.45;;;33.30;36.10;;;;;;5138357;27;20219;-83
2022/06/05 13:22:39;;;;;;;1.50;1.30;;;33.40;35.30;;;;;;5125812;27;20224;-83
2022/06/05 13:25:45;;;;;;;1.50;1.40;;;33.50;35.00;;;;;;5123190;27;20317;-82
2022/06/05 13:28:43;;;;;;;1.33;1.13;;;33.40;34.20;;;;;;5129234;27;20316;-82
2022/06/05 13:31:45;;;;;;;1.40;1.30;;;33.30;34.30;;;;;;5123369;27;20232;-82
2022/06/05 13:34:44;;;;;;;1.35;1.20;;;33.10;34.90;;;;;;5116114;27;20228;-82
2022/06/05 13:37:41;;;;;;;1.23;1.13;;;33.00;34.80;;;;;;5133904;27;20259;-82
2022/06/05 13:40:40;;;;;;;1.52;1.30;;;33.00;34.40;;;;;;5130756;27;20317;-82